Time;durP1;ratioP1;P1;durP2;ratioP2;P2;SDS_P1;SDS_P2;PMS_P1;PMS_P2;Temp;Humidity;BMP_temperature;BMP_pressure;BME280_temperature;BME280_humidity;BME280_pressure;Samples;Min_cycle;Max_cycle;Signal;HPM_P1;HPM_P2
2023/04/09 00:01:56;;;;;;;35.33;27.10;;;7.50;99.90;;;;;;5095129;28;20094;-60
2023/04/09 00:04:23;;;;;;;42.78;28.65;;;7.50;99.90;;;;;;5096321;28;20047;-60
2023/04/09 00:06:50;;;;;;;39.13;27.33;;;7.40;99.90;;;;;;5095880;28;20050;-60
2023/04/09 00:09:17;;;;;;;35.75;26.92;;;7.40;99.90;;;;;;5094442;28;20047;-60
2023/04/09 00:11:43;;;;;;;38.97;26.90;;;7.40;99.90;;;;;;5095886;28;20089;-61
2023/04/09 00:14:10;;;;;;;37.03;28.05;;;7.40;99.90;;;;;;5096124;28;20042;-60
2023/04/09 00:16:37;;;;;;;38.95;27.92;;;7.40;99.90;;;;;;5096063;28;20039;-60
2023/04/09 00:19:04;;;;;;;38.60;28.75;;;7.30;99.90;;;;;;5095857;28;20066;-60
2023/04/09 00:21:31;;;;;;;38.10;27.45;;;7.40;99.90;;;;;;5095714;28;20044;-59
2023/04/09 00:23:58;;;;;;;41.80;27.83;;;7.40;99.90;;;;;;5095593;28;20079;-61
2023/04/09 00:26:24;;;;;;;37.05;26.80;;;7.40;99.90;;;;;;5095852;28;20069;-61
2023/04/09 00:28:51;;;;;;;36.30;26.52;;;7.40;99.90;;;;;;5094622;28;20378;-61
2023/04/09 00:31:18;;;;;;;35.78;26.83;;;7.30;99.90;;;;;;5094086;28;20051;-60
2023/04/09 00:33:46;;;;;;;36.92;27.35;;;7.30;99.90;;;;;;5094201;28;20495;-60
2023/04/09 00:36:13;;;;;;;46.17;27.85;;;7.30;99.90;;;;;;5094063;28;20119;-59
2023/04/09 00:38:40;;;;;;;35.83;27.40;;;7.30;99.90;;;;;;5095794;28;20047;-60
2023/04/09 00:41:07;;;;;;;35.25;25.92;;;7.40;99.90;;;;;;5113679;28;20114;-60
2023/04/09 00:43:34;;;;;;;35.13;25.50;;;7.40;99.90;;;;;;5115505;28;20067;-61
2023/04/09 00:46:00;;;;;;;37.45;26.67;;;7.40;99.90;;;;;;5114567;28;20570;-61
2023/04/09 00:48:27;;;;;;;35.10;25.83;;;7.50;99.90;;;;;;5115099;28;20135;-60
2023/04/09 00:50:54;;;;;;;33.15;26.20;;;7.50;99.90;;;;;;5115120;27;20551;-60
2023/04/09 00:53:21;;;;;;;38.20;27.17;;;7.60;99.90;;;;;;5114030;28;20032;-60
2023/04/09 00:55:47;;;;;;;34.88;26.63;;;7.70;99.90;;;;;;5115926;28;20036;-60
2023/04/09 00:58:14;;;;;;;34.53;26.15;;;7.70;99.90;;;;;;5114505;28;20047;-60
2023/04/09 01:00:41;;;;;;;34.55;26.38;;;7.70;99.90;;;;;;5114034;28;20052;-60
2023/04/09 01:03:08;;;;;;;40.30;28.48;;;7.80;99.90;;;;;;5115268;28;20040;-60
2023/04/09 01:05:35;;;;;;;38.92;28.55;;;7.80;99.90;;;;;;5113804;28;20505;-61
2023/04/09 01:08:01;;;;;;;38.80;28.27;;;7.80;99.90;;;;;;5115019;28;20093;-61
2023/04/09 01:10:28;;;;;;;39.28;29.17;;;7.70;99.90;;;;;;5115152;28;20052;-60
2023/04/09 01:12:55;;;;;;;39.90;29.75;;;7.70;99.90;;;;;;5114967;28;20059;-60
2023/04/09 01:15:22;;;;;;;41.38;29.52;;;7.60;99.90;;;;;;5114920;28;20032;-60
2023/04/09 01:17:49;;;;;;;42.78;29.85;;;7.60;99.90;;;;;;5114794;28;20031;-60
2023/04/09 01:20:16;;;;;;;41.03;29.13;;;7.50;99.90;;;;;;5113470;28;20089;-61
2023/04/09 01:22:43;;;;;;;40.00;29.75;;;7.50;99.90;;;;;;5114888;28;20082;-61
2023/04/09 01:25:10;;;;;;;38.67;28.85;;;7.50;99.90;;;;;;5113672;28;20116;-61
2023/04/09 01:27:41;;;;;;;40.13;29.38;;;7.50;99.90;;;;;;5113999;28;20354;-62
2023/04/09 01:30:08;;;;;;;42.17;29.85;;;7.50;99.90;;;;;;5113744;28;20070;-60
2023/04/09 01:32:35;;;;;;;39.65;29.15;;;7.50;99.90;;;;;;5114801;28;20101;-60
2023/04/09 01:35:02;;;;;;;42.13;30.00;;;7.50;99.90;;;;;;5113295;28;20096;-60
2023/04/09 01:37:28;;;;;;;43.67;28.98;;;7.50;99.90;;;;;;5096628;28;20122;-62
2023/04/09 01:39:55;;;;;;;40.38;29.02;;;7.50;99.90;;;;;;5103971;28;20048;-61
2023/04/09 01:42:22;;;;;;;42.15;29.65;;;7.40;99.90;;;;;;5092743;28;20139;-61
2023/04/09 01:44:49;;;;;;;41.17;29.02;;;7.40;99.90;;;;;;5093377;28;20429;-61
2023/04/09 01:47:16;;;;;;;40.08;29.90;;;7.40;99.90;;;;;;5094189;28;20085;-60
2023/04/09 01:49:43;;;;;;;37.80;28.73;;;7.40;99.90;;;;;;5092685;28;20048;-61
2023/04/09 01:52:10;;;;;;;43.05;28.58;;;7.30;99.90;;;;;;5093909;28;20402;-60
2023/04/09 01:54:37;;;;;;;41.08;29.33;;;7.30;99.90;;;;;;5092556;28;20040;-60
2023/04/09 01:57:03;;;;;;;42.20;28.67;;;7.20;99.90;;;;;;5094448;28;20107;-61
2023/04/09 01:59:30;;;;;;;39.47;29.23;;;7.30;99.90;;;;;;5092261;28;20441;-60
2023/04/09 02:01:57;;;;;;;39.90;29.17;;;7.20;99.90;;;;;;5092722;28;20093;-60
2023/04/09 02:04:24;;;;;;;41.72;29.38;;;7.20;99.90;;;;;;5093663;28;20074;-60
2023/04/09 02:06:51;;;;;;;43.58;30.83;;;7.10;99.90;;;;;;5092216;28;20044;-60
2023/04/09 02:09:18;;;;;;;46.30;30.58;;;7.10;99.90;;;;;;5093869;28;20089;-60
2023/04/09 02:11:45;;;;;;;42.80;30.00;;;7.10;99.90;;;;;;5092674;28;20128;-60
2023/04/09 02:14:12;;;;;;;42.95;29.45;;;7.00;99.90;;;;;;5092348;28;20132;-61
2023/04/09 02:16:38;;;;;;;39.75;29.77;;;7.00;99.90;;;;;;5092541;28;20036;-61
2023/04/09 02:19:05;;;;;;;43.25;29.63;;;7.00;99.90;;;;;;5093615;28;20032;-61
2023/04/09 02:21:32;;;;;;;43.22;29.73;;;7.00;99.90;;;;;;5092099;28;20498;-60
2023/04/09 02:23:59;;;;;;;41.22;28.98;;;7.00;99.90;;;;;;5092978;28;20394;-61
2023/04/09 02:26:26;;;;;;;44.67;29.92;;;6.90;99.90;;;;;;5093632;28;20051;-60
2023/04/09 02:28:52;;;;;;;43.83;29.70;;;6.90;99.90;;;;;;5093256;28;20052;-61
2023/04/09 02:31:20;;;;;;;42.03;29.95;;;6.90;99.90;;;;;;5093418;28;20036;-61
2023/04/09 02:33:46;;;;;;;42.17;30.48;;;6.90;99.90;;;;;;5093089;28;20425;-60
2023/04/09 02:36:13;;;;;;;39.63;28.85;;;6.90;99.90;;;;;;5092428;28;20036;-60
2023/04/09 02:38:41;;;;;;;42.20;30.13;;;6.90;99.90;;;;;;5100476;28;20364;-60
2023/04/09 02:41:07;;;;;;;41.60;29.40;;;6.90;99.90;;;;;;5113692;28;20490;-61
2023/04/09 02:43:34;;;;;;;42.13;30.00;;;6.90;99.90;;;;;;5095624;28;20374;-60
2023/04/09 02:46:01;;;;;;;44.63;29.30;;;6.80;99.90;;;;;;5100358;28;20075;-61
2023/04/09 02:48:29;;;;;;;42.70;29.98;;;6.80;99.90;;;;;;5091944;28;20074;-61
2023/04/09 02:50:56;;;;;;;42.40;28.88;;;6.80;99.90;;;;;;5091660;28;20040;-60
2023/04/09 02:53:23;;;;;;;39.83;29.30;;;6.80;99.90;;;;;;5102210;28;20058;-60
2023/04/09 02:55:49;;;;;;;40.72;28.88;;;6.80;99.90;;;;;;5095279;28;20043;-60
2023/04/09 02:58:16;;;;;;;42.78;29.80;;;6.80;99.90;;;;;;5112350;28;20097;-60
2023/04/09 03:00:43;;;;;;;42.50;28.80;;;6.70;99.90;;;;;;5112180;28;20062;-61
2023/04/09 03:03:10;;;;;;;42.70;29.55;;;6.70;99.90;;;;;;5112503;28;20047;-61
2023/04/09 03:05:37;;;;;;;46.15;30.30;;;6.70;99.90;;;;;;5112640;28;20478;-61
2023/04/09 03:08:04;;;;;;;40.55;28.85;;;6.70;99.90;;;;;;5095828;28;20071;-60
2023/04/09 03:10:31;;;;;;;41.75;29.25;;;6.60;99.90;;;;;;5113907;28;20050;-61
2023/04/09 03:12:58;;;;;;;41.13;28.80;;;6.60;99.90;;;;;;5115932;28;20089;-60
2023/04/09 03:15:24;;;;;;;42.08;29.15;;;6.60;99.90;;;;;;5117618;28;20034;-60
2023/04/09 03:17:51;;;;;;;42.30;29.98;;;6.60;99.90;;;;;;5117922;28;20044;-60
2023/04/09 03:20:19;;;;;;;45.92;30.13;;;6.60;99.90;;;;;;5117223;28;20120;-60
2023/04/09 03:22:46;;;;;;;44.45;29.33;;;6.50;99.90;;;;;;5116068;28;20089;-59
2023/04/09 03:25:22;;;;;;;44.28;30.25;;;6.50;99.90;;;;;;5116049;28;20043;-60
2023/04/09 03:27:52;;;;;;;44.53;29.40;;;6.50;99.90;;;;;;5115934;28;20112;-61
2023/04/09 03:30:29;;;;;;;41.45;28.92;;;6.50;99.90;;;;;;5115583;28;20439;-60
2023/04/09 03:32:58;;;;;;;45.47;30.75;;;6.50;99.90;;;;;;5116031;28;20428;-60
2023/04/09 03:35:27;;;;;;;44.97;31.38;;;6.50;99.90;;;;;;5115585;28;20054;-60
2023/04/09 03:37:57;;;;;;;42.65;29.63;;;6.50;99.90;;;;;;5115625;28;20043;-60
2023/04/09 03:40:24;;;;;;;41.47;29.02;;;6.40;99.90;;;;;;5106097;28;20470;-60
2023/04/09 03:42:51;;;;;;;45.28;28.92;;;6.40;99.90;;;;;;5096401;28;20093;-59
2023/04/09 03:45:18;;;;;;;42.45;29.40;;;6.40;99.90;;;;;;5095208;28;20048;-61
2023/04/09 03:47:48;;;;;;;42.72;28.20;;;6.30;99.90;;;;;;5094950;28;20136;-59
2023/04/09 03:50:16;;;;;;;39.13;27.85;;;6.30;99.90;;;;;;5095360;28;20054;-60
2023/04/09 03:52:49;;;;;;;44.38;30.10;;;6.30;99.90;;;;;;5094818;28;20441;-60
2023/04/09 03:55:17;;;;;;;40.90;28.88;;;6.30;99.90;;;;;;5094701;28;20048;-61
2023/04/09 03:57:44;;;;;;;41.55;28.85;;;6.20;99.90;;;;;;5094801;28;20059;-60
2023/04/09 04:00:15;;;;;;;44.65;30.58;;;6.20;99.90;;;;;;5096502;28;20118;-61
2023/04/09 04:03:09;;;;;;;45.33;29.95;;;6.20;99.90;;;;;;5094607;28;20056;-59
2023/04/09 04:05:59;;;;;;;42.70;30.00;;;6.20;99.90;;;;;;5096119;28;20048;-60
2023/04/09 04:08:26;;;;;;;43.00;29.90;;;6.20;99.90;;;;;;5094973;28;20048;-60
2023/04/09 04:10:54;;;;;;;43.05;31.27;;;6.20;99.90;;;;;;5094365;28;20039;-60
2023/04/09 04:13:21;;;;;;;44.65;31.17;;;6.20;99.90;;;;;;5077823;28;20437;-60
2023/04/09 04:15:54;;;;;;;42.83;30.00;;;6.10;99.90;;;;;;5094552;28;20040;-61
2023/04/09 04:18:22;;;;;;;45.97;31.52;;;6.10;99.90;;;;;;5094309;28;20048;-60
2023/04/09 04:20:51;;;;;;;44.97;32.08;;;6.10;99.90;;;;;;5094154;28;20047;-60
2023/04/09 04:23:18;;;;;;;45.00;31.92;;;6.00;99.90;;;;;;5093317;28;20070;-59
2023/04/09 04:25:52;;;;;;;44.83;32.60;;;6.00;99.90;;;;;;5094271;28;20410;-59
2023/04/09 04:28:26;;;;;;;47.20;33.10;;;6.00;99.90;;;;;;5094839;28;20047;-60
2023/04/09 04:30:53;;;;;;;47.45;32.63;;;6.00;99.90;;;;;;5094345;28;20078;-61
2023/04/09 04:33:20;;;;;;;44.47;31.83;;;6.00;99.90;;;;;;5093764;28;20043;-59
2023/04/09 04:35:50;;;;;;;45.83;32.22;;;6.00;99.90;;;;;;5094721;28;20101;-60
2023/04/09 04:38:37;;;;;;;48.88;33.47;;;5.90;99.90;;;;;;5093924;28;20048;-60
2023/04/09 04:41:11;;;;;;;45.63;31.85;;;5.90;99.90;;;;;;5108517;28;20465;-60
2023/04/09 04:43:42;;;;;;;47.95;34.05;;;5.90;99.90;;;;;;5114470;28;20043;-60
2023/04/09 04:46:19;;;;;;;48.65;33.75;;;5.90;99.90;;;;;;5115058;28;20071;-59
2023/04/09 04:48:46;;;;;;;53.33;35.67;;;5.90;99.90;;;;;;5114680;28;20052;-60
2023/04/09 04:51:14;;;;;;;47.70;33.60;;;5.90;99.90;;;;;;5114311;28;20063;-60
2023/04/09 04:53:46;;;;;;;53.17;35.13;;;5.80;99.90;;;;;;5115267;28;20502;-60
2023/04/09 04:56:14;;;;;;;48.90;35.22;;;5.80;99.90;;;;;;5115800;28;20047;-60
2023/04/09 04:58:57;;;;;;;51.05;33.78;;;5.80;99.90;;;;;;5114007;28;20039;-59
2023/04/09 05:01:24;;;;;;;49.78;34.35;;;5.80;99.90;;;;;;5113606;28;20040;-60
2023/04/09 05:03:52;;;;;;;49.50;34.53;;;5.70;99.90;;;;;;5113644;28;20379;-60
2023/04/09 05:06:30;;;;;;;50.50;35.00;;;5.70;99.90;;;;;;5114078;28;20039;-59
2023/04/09 05:09:00;;;;;;;53.13;37.90;;;5.70;99.90;;;;;;5113514;28;20046;-61
2023/04/09 05:11:35;;;;;;;51.25;36.47;;;5.60;99.90;;;;;;5113574;28;20047;-60
2023/04/09 05:14:05;;;;;;;54.05;35.75;;;5.60;99.90;;;;;;5114023;28;20508;-59
2023/04/09 05:16:32;;;;;;;51.90;37.08;;;5.50;99.90;;;;;;5113667;28;20047;-60
2023/04/09 05:19:03;;;;;;;54.35;36.88;;;5.50;99.90;;;;;;5114237;28;20405;-61
2023/04/09 05:21:30;;;;;;;57.55;37.97;;;5.50;99.90;;;;;;5113871;28;20055;-60
2023/04/09 05:23:59;;;;;;;52.28;35.65;;;5.50;99.90;;;;;;5114005;28;20097;-60
2023/04/09 05:26:30;;;;;;;51.60;36.22;;;5.50;99.90;;;;;;5113410;28;20134;-59
2023/04/09 05:28:57;;;;;;;54.35;37.00;;;5.50;99.90;;;;;;5114692;28;20044;-60
2023/04/09 05:31:25;;;;;;;55.58;37.10;;;5.50;99.90;;;;;;5113365;28;20123;-60
2023/04/09 05:33:59;;;;;;;49.88;35.25;;;5.50;99.90;;;;;;5114703;28;20088;-59
2023/04/09 05:36:34;;;;;;;54.25;35.03;;;5.60;99.90;;;;;;5114940;28;20456;-59
2023/04/09 05:39:01;;;;;;;48.03;34.22;;;5.50;99.90;;;;;;5113131;28;20040;-60
2023/04/09 05:41:29;;;;;;;49.22;33.53;;;5.60;99.90;;;;;;5095459;28;20043;-59
2023/04/09 05:44:20;;;;;;;46.05;32.45;;;5.50;99.90;;;;;;5079960;28;20490;-59
2023/04/09 05:46:49;;;;;;;45.63;31.50;;;5.50;99.90;;;;;;5092627;28;20048;-59
2023/04/09 05:49:21;;;;;;;44.42;29.75;;;5.40;99.90;;;;;;5093344;28;20450;-60
2023/04/09 05:51:51;;;;;;;54.25;28.55;;;5.40;99.90;;;;;;5092990;28;20043;-60
2023/04/09 05:54:24;;;;;;;45.83;26.98;;;5.40;99.90;;;;;;5093013;28;20052;-60
2023/04/09 05:56:51;;;;;;;44.50;27.88;;;5.40;99.90;;;;;;5093059;28;20044;-60
2023/04/09 05:59:19;;;;;;;44.80;28.92;;;5.40;99.90;;;;;;5092641;28;20036;-61
2023/04/09 06:01:45;;;;;;;45.92;28.50;;;5.50;99.90;;;;;;5092504;28;20411;-60
2023/04/09 06:04:12;;;;;;;60.15;27.08;;;5.50;99.90;;;;;;5092663;28;20387;-60
2023/04/09 06:06:40;;;;;;;61.60;27.45;;;5.50;99.90;;;;;;5092702;28;20083;-61
2023/04/09 06:09:06;;;;;;;36.70;27.10;;;5.50;99.90;;;;;;5093508;28;20506;-61
2023/04/09 06:11:36;;;;;;;40.63;25.85;;;5.50;99.90;;;;;;5092278;28;20039;-60
2023/04/09 06:14:03;;;;;;;40.25;25.73;;;5.60;99.90;;;;;;5092384;28;20067;-61
2023/04/09 06:16:29;;;;;;;44.35;25.35;;;5.60;99.90;;;;;;5092385;28;20036;-60
2023/04/09 06:18:56;;;;;;;35.45;24.27;;;5.60;99.90;;;;;;5093746;28;20066;-61
2023/04/09 06:21:23;;;;;;;36.20;22.77;;;5.60;99.90;;;;;;5093855;28;20044;-60
2023/04/09 06:23:52;;;;;;;36.60;23.75;;;5.70;99.90;;;;;;5093323;28;20544;-60
2023/04/09 06:26:20;;;;;;;31.23;23.67;;;5.70;99.90;;;;;;5093390;28;20059;-60
2023/04/09 06:28:46;;;;;;;41.05;23.92;;;5.80;99.90;;;;;;5094001;28;20068;-60
2023/04/09 06:31:13;;;;;;;39.38;22.25;;;5.80;99.90;;;;;;5093387;28;20039;-60
2023/04/09 06:33:40;;;;;;;29.52;22.35;;;5.90;99.90;;;;;;5093097;28;20044;-60
2023/04/09 06:36:06;;;;;;;32.35;23.02;;;5.90;99.90;;;;;;5093361;28;20089;-60
2023/04/09 06:38:33;;;;;;;36.58;23.20;;;5.90;99.90;;;;;;5093849;28;20576;-61
2023/04/09 06:41:00;;;;;;;35.45;23.15;;;5.90;99.90;;;;;;5101056;28;20071;-61
2023/04/09 06:43:27;;;;;;;30.67;22.55;;;5.90;99.90;;;;;;5114223;28;20044;-61
2023/04/09 06:45:53;;;;;;;44.63;24.08;;;6.00;99.90;;;;;;5115193;28;20028;-60
2023/04/09 06:48:20;;;;;;;34.22;23.42;;;6.00;99.90;;;;;;5117662;28;20047;-60
2023/04/09 06:50:47;;;;;;;36.08;24.70;;;6.10;99.90;;;;;;5117885;28;20088;-60
2023/04/09 06:53:15;;;;;;;40.72;23.95;;;6.20;99.90;;;;;;5117682;28;20093;-60
2023/04/09 06:55:42;;;;;;;37.30;24.83;;;6.20;99.90;;;;;;5118196;28;20039;-60
2023/04/09 06:58:08;;;;;;;36.88;24.58;;;6.30;99.90;;;;;;5118126;28;20044;-60
2023/04/09 07:00:35;;;;;;;36.83;25.95;;;6.40;99.90;;;;;;5117832;28;20415;-60
2023/04/09 07:03:02;;;;;;;35.80;24.73;;;6.50;99.90;;;;;;5116638;28;20096;-60
2023/04/09 07:05:29;;;;;;;33.83;24.27;;;6.60;99.90;;;;;;5117266;28;20490;-60
2023/04/09 07:07:56;;;;;;;32.00;23.52;;;6.70;99.90;;;;;;5117299;27;20055;-60
2023/04/09 07:10:23;;;;;;;35.20;25.52;;;6.70;99.90;;;;;;5117179;28;20044;-62
2023/04/09 07:12:49;;;;;;;35.95;25.23;;;6.70;99.90;;;;;;5117593;28;20424;-60
2023/04/09 07:15:16;;;;;;;32.17;23.95;;;6.70;99.90;;;;;;5117303;28;20063;-59
2023/04/09 07:17:43;;;;;;;33.72;25.10;;;6.70;99.90;;;;;;5117163;28;20031;-61
2023/04/09 07:20:10;;;;;;;31.95;23.95;;;6.70;99.90;;;;;;5117724;27;20036;-60
2023/04/09 07:22:36;;;;;;;35.65;25.90;;;6.80;99.90;;;;;;5117514;28;20036;-60
2023/04/09 07:25:03;;;;;;;34.63;25.13;;;6.80;99.90;;;;;;5117290;28;20045;-60
2023/04/09 07:27:30;;;;;;;33.65;24.90;;;6.90;99.90;;;;;;5117233;28;20470;-60
2023/04/09 07:29:57;;;;;;;34.25;25.17;;;6.90;99.90;;;;;;5117074;28;20100;-59
2023/04/09 07:32:24;;;;;;;31.52;24.25;;;6.90;99.90;;;;;;5117514;28;20047;-61
2023/04/09 07:34:51;;;;;;;32.63;24.67;;;7.00;99.90;;;;;;5117385;28;20058;-60
2023/04/09 07:37:18;;;;;;;30.75;23.83;;;7.10;99.90;;;;;;5117347;28;20458;-60
2023/04/09 07:39:45;;;;;;;36.10;25.75;;;7.10;99.90;;;;;;5116520;28;20130;-59
2023/04/09 07:42:12;;;;;;;34.50;25.45;;;7.10;99.90;;;;;;5096865;28;20387;-60
2023/04/09 07:44:38;;;;;;;33.50;25.92;;;7.20;99.90;;;;;;5096881;28;20119;-60
2023/04/09 07:47:05;;;;;;;35.78;27.92;;;7.20;99.90;;;;;;5096382;28;20056;-61
2023/04/09 07:49:32;;;;;;;36.00;25.20;;;7.40;99.90;;;;;;5096759;28;20040;-60
2023/04/09 07:51:59;;;;;;;34.53;26.48;;;7.50;99.90;;;;;;5096394;28;20528;-61
2023/04/09 07:54:27;;;;;;;34.45;25.73;;;7.70;99.90;;;;;;5096274;28;20135;-60
2023/04/09 07:56:55;;;;;;;33.85;24.95;;;7.80;99.90;;;;;;5096114;28;20344;-61
2023/04/09 07:59:21;;;;;;;35.40;27.20;;;7.90;99.90;;;;;;5096315;28;20063;-60
2023/04/09 08:01:48;;;;;;;33.25;26.90;;;8.00;99.90;;;;;;5096506;28;20101;-61
2023/04/09 08:04:15;;;;;;;34.80;26.38;;;8.00;99.90;;;;;;5096547;28;20433;-61
2023/04/09 08:06:45;;;;;;;33.08;26.63;;;8.10;99.90;;;;;;5096070;28;20044;-59
2023/04/09 08:09:12;;;;;;;33.08;25.52;;;8.10;99.90;;;;;;5096064;28;20344;-61
2023/04/09 08:11:39;;;;;;;35.15;27.95;;;8.10;99.90;;;;;;5111900;28;20126;-61
2023/04/09 08:14:06;;;;;;;37.95;28.38;;;8.00;99.90;;;;;;5115387;28;20061;-60
2023/04/09 08:16:32;;;;;;;35.83;28.70;;;8.00;99.90;;;;;;5116171;28;20070;-60
2023/04/09 08:18:59;;;;;;;35.40;27.85;;;8.10;99.90;;;;;;5116312;28;20048;-61
2023/04/09 08:21:26;;;;;;;35.10;28.42;;;8.10;99.90;;;;;;5116144;28;20082;-61
2023/04/09 08:23:54;;;;;;;36.28;28.25;;;8.10;99.90;;;;;;5116451;28;20364;-61
2023/04/09 08:26:21;;;;;;;36.00;28.70;;;8.10;99.90;;;;;;5115272;28;20046;-60
2023/04/09 08:28:48;;;;;;;39.58;30.15;;;8.10;99.90;;;;;;5115075;28;20036;-60
2023/04/09 08:31:15;;;;;;;39.15;29.13;;;8.20;99.90;;;;;;5115659;28;20038;-61
2023/04/09 08:33:42;;;;;;;36.33;30.27;;;8.30;99.90;;;;;;5116091;28;20044;-61
2023/04/09 08:36:10;;;;;;;37.55;29.70;;;8.30;99.90;;;;;;5103781;28;20067;-61
2023/04/09 08:38:37;;;;;;;38.15;30.70;;;8.40;99.90;;;;;;5095691;28;20061;-60
2023/04/09 08:41:04;;;;;;;37.90;30.30;;;8.50;99.90;;;;;;5095156;28;20068;-61
2023/04/09 08:43:30;;;;;;;38.60;30.17;;;8.50;99.90;;;;;;5095844;28;20044;-61
2023/04/09 08:46:17;;;;;;;38.25;30.05;;;8.60;99.90;;;;;;5095404;28;20044;-60
2023/04/09 08:48:44;;;;;;;38.75;30.15;;;8.60;99.90;;;;;;5094973;28;20044;-60
2023/04/09 08:51:11;;;;;;;39.83;30.27;;;8.70;99.90;;;;;;5095508;28;20524;-60
2023/04/09 08:53:38;;;;;;;37.78;30.77;;;8.80;99.90;;;;;;5095568;28;20120;-61
2023/04/09 08:56:04;;;;;;;37.67;30.10;;;8.90;99.90;;;;;;5095401;28;20358;-61
2023/04/09 08:58:31;;;;;;;38.10;30.33;;;9.00;99.90;;;;;;5094849;28;20148;-61
2023/04/09 09:00:58;;;;;;;36.75;29.77;;;9.10;99.90;;;;;;5095323;28;20399;-61
2023/04/09 09:03:25;;;;;;;38.75;30.27;;;9.20;99.90;;;;;;5094854;28;20071;-61
2023/04/09 09:05:51;;;;;;;37.60;30.55;;;9.30;99.90;;;;;;5095176;28;20040;-61
2023/04/09 09:08:18;;;;;;;36.88;30.20;;;9.30;99.90;;;;;;5094063;28;20040;-61
2023/04/09 09:10:45;;;;;;;37.50;30.45;;;9.40;99.90;;;;;;5094520;28;20040;-61
2023/04/09 09:13:12;;;;;;;36.83;30.58;;;9.40;99.90;;;;;;5094623;28;20593;-62
2023/04/09 09:15:38;;;;;;;36.78;29.55;;;9.50;99.90;;;;;;5094629;28;20494;-62
2023/04/09 09:18:06;;;;;;;32.58;26.75;;;9.50;99.90;;;;;;5095007;28;20036;-61
2023/04/09 09:20:32;;;;;;;30.00;24.77;;;9.60;99.90;;;;;;5094621;28;20035;-61
2023/04/09 09:23:00;;;;;;;32.17;25.30;;;9.70;99.90;;;;;;5095026;28;20047;-61
2023/04/09 09:25:27;;;;;;;30.27;24.52;;;9.80;99.90;;;;;;5095008;28;20040;-61
2023/04/09 09:27:54;;;;;;;33.35;25.52;;;9.90;99.90;;;;;;5094445;28;20097;-61
2023/04/09 09:30:21;;;;;;;29.98;24.00;;;10.00;99.90;;;;;;5094567;28;20097;-61
2023/04/09 09:32:47;;;;;;;31.73;23.48;;;10.00;99.90;;;;;;5094619;28;20044;-61
2023/04/09 09:35:14;;;;;;;28.35;22.52;;;10.10;99.90;;;;;;5094583;28;20044;-61
2023/04/09 09:37:41;;;;;;;33.85;23.35;;;10.30;99.90;;;;;;5094825;28;20479;-61
2023/04/09 09:40:08;;;;;;;28.85;20.90;;;10.40;99.90;;;;;;5097379;28;20039;-61
2023/04/09 09:42:35;;;;;;;24.92;19.90;;;10.60;99.90;;;;;;5114462;28;20063;-61
2023/04/09 09:45:01;;;;;;;25.67;20.23;;;10.80;99.90;;;;;;5114875;28;20147;-61
2023/04/09 09:47:28;;;;;;;29.20;18.63;;;10.90;99.90;;;;;;5112995;28;20142;-61
2023/04/09 09:49:55;;;;;;;24.73;19.45;;;11.10;99.90;;;;;;5114440;28;20039;-61
2023/04/09 09:52:22;;;;;;;22.23;17.95;;;11.20;99.90;;;;;;5114264;28;20077;-61
2023/04/09 09:54:49;;;;;;;23.63;16.60;;;11.40;99.90;;;;;;5113893;28;20035;-61
2023/04/09 09:57:16;;;;;;;21.15;15.60;;;11.50;99.90;;;;;;5114479;28;20482;-61
2023/04/09 09:59:43;;;;;;;17.85;13.63;;;11.50;99.90;;;;;;5114472;28;20374;-62
2023/04/09 10:02:10;;;;;;;17.75;13.27;;;11.60;99.90;;;;;;5113591;28;20122;-61
2023/04/09 10:04:38;;;;;;;17.35;14.25;;;11.60;99.90;;;;;;5114252;28;20036;-62
2023/04/09 10:07:05;;;;;;;17.17;13.90;;;11.70;99.90;;;;;;5114142;28;20039;-61
2023/04/09 10:09:32;;;;;;;18.30;12.85;;;11.70;99.90;;;;;;5112867;28;20048;-62
2023/04/09 10:11:59;;;;;;;19.38;14.40;;;11.80;99.90;;;;;;5114037;28;20047;-61
2023/04/09 10:14:27;;;;;;;18.35;13.38;;;11.80;99.90;;;;;;5114396;28;20104;-61
2023/04/09 10:16:54;;;;;;;18.10;13.70;;;11.90;99.90;;;;;;5114682;28;20089;-60
2023/04/09 10:19:22;;;;;;;16.77;14.05;;;11.90;99.90;;;;;;5114085;28;20404;-62
2023/04/09 10:21:49;;;;;;;16.23;12.82;;;11.90;99.90;;;;;;5113788;28;20521;-61
2023/04/09 10:24:16;;;;;;;16.55;12.50;;;11.90;99.90;;;;;;5113832;28;20039;-61
2023/04/09 10:26:45;;;;;;;21.13;14.23;;;11.90;99.90;;;;;;5113780;28;20036;-61
2023/04/09 10:29:15;;;;;;;17.30;13.73;;;12.00;99.90;;;;;;5112440;28;20513;-61
2023/04/09 10:31:42;;;;;;;18.45;12.52;;;12.00;99.90;;;;;;5114248;28;20044;-62
2023/04/09 10:34:09;;;;;;;15.95;12.88;;;12.10;99.90;;;;;;5112873;28;20043;-60
2023/04/09 10:36:36;;;;;;;19.10;14.30;;;12.20;99.90;;;;;;5113908;28;20050;-60
2023/04/09 10:39:03;;;;;;;17.20;13.23;;;12.20;99.90;;;;;;5113526;28;20039;-60
2023/04/09 10:41:30;;;;;;;17.95;13.38;;;12.30;99.90;;;;;;5098752;28;20447;-61
2023/04/09 10:43:57;;;;;;;18.85;13.55;;;12.30;99.90;;;;;;5093661;28;20044;-60
2023/04/09 10:46:24;;;;;;;18.27;13.95;;;12.30;99.90;;;;;;5093589;28;20068;-61
2023/04/09 10:48:51;;;;;;;16.13;11.98;;;12.30;99.90;;;;;;5093502;28;20056;-60
2023/04/09 10:51:18;;;;;;;18.30;13.35;;;12.20;99.90;;;;;;5093204;28;20081;-60
2023/04/09 10:53:45;;;;;;;19.95;13.38;;;12.30;99.90;;;;;;5093245;28;20048;-61
2023/04/09 10:56:12;;;;;;;20.77;15.27;;;12.30;99.90;;;;;;5093549;28;20111;-61
2023/04/09 10:58:38;;;;;;;20.02;14.65;;;12.40;99.90;;;;;;5093351;28;20043;-60
2023/04/09 11:01:05;;;;;;;16.25;12.95;;;12.40;99.90;;;;;;5093282;28;20127;-62
2023/04/09 11:03:32;;;;;;;17.55;13.40;;;12.40;99.90;;;;;;5093193;28;20470;-60
2023/04/09 11:05:59;;;;;;;19.73;14.07;;;12.40;99.90;;;;;;5092775;28;20040;-60
2023/04/09 11:08:25;;;;;;;21.95;15.60;;;12.50;99.90;;;;;;5092116;28;20044;-60
2023/04/09 11:10:57;;;;;;;19.92;15.90;;;12.60;99.90;;;;;;5093105;28;20123;-61
2023/04/09 11:13:24;;;;;;;18.58;15.20;;;12.50;99.90;;;;;;5093664;28;20070;-60
2023/04/09 11:15:50;;;;;;;19.80;14.75;;;12.60;99.90;;;;;;5093435;28;20044;-61
2023/04/09 11:18:17;;;;;;;20.05;14.80;;;12.60;99.90;;;;;;5093364;28;20372;-61
2023/04/09 11:20:44;;;;;;;18.33;15.35;;;12.60;99.90;;;;;;5093086;28;20071;-60
2023/04/09 11:23:11;;;;;;;18.65;14.45;;;12.60;99.90;;;;;;5093127;28;20044;-61
2023/04/09 11:25:37;;;;;;;19.38;15.05;;;12.60;99.90;;;;;;5093365;28;20044;-60
2023/04/09 11:28:05;;;;;;;19.63;15.43;;;12.70;99.90;;;;;;5093138;28;20098;-60
2023/04/09 11:30:33;;;;;;;20.33;16.15;;;12.70;99.90;;;;;;5092673;28;20462;-61
2023/04/09 11:33:00;;;;;;;21.05;17.27;;;12.80;99.90;;;;;;5095769;28;20044;-61
2023/04/09 11:35:27;;;;;;;20.23;16.02;;;12.90;99.90;;;;;;5096694;28;20047;-62
2023/04/09 11:37:54;;;;;;;20.70;16.10;;;13.00;99.90;;;;;;5095353;28;20036;-61
2023/04/09 11:40:20;;;;;;;19.70;16.13;;;13.00;99.90;;;;;;5098769;28;20390;-61
2023/04/09 11:42:47;;;;;;;21.35;17.38;;;13.00;99.90;;;;;;5116960;28;20042;-62
2023/04/09 11:45:14;;;;;;;19.30;16.15;;;13.00;99.90;;;;;;5116696;28;20039;-61
2023/04/09 11:47:41;;;;;;;22.98;17.35;;;13.10;99.90;;;;;;5116821;28;20055;-62
2023/04/09 11:50:08;;;;;;;20.85;17.08;;;13.10;99.90;;;;;;5116643;28;20110;-61
2023/04/09 11:52:34;;;;;;;24.02;17.60;;;13.10;99.90;;;;;;5117139;28;20456;-61
2023/04/09 11:55:02;;;;;;;19.55;15.82;;;13.20;99.90;;;;;;5116981;28;20036;-62
2023/04/09 11:57:30;;;;;;;20.60;16.27;;;13.20;99.90;;;;;;5116659;27;20035;-61
2023/04/09 11:59:56;;;;;;;21.08;16.83;;;13.20;99.90;;;;;;5115116;28;20043;-62
2023/04/09 12:02:23;;;;;;;21.25;16.95;;;13.30;99.90;;;;;;5116593;28;20082;-61
2023/04/09 12:04:50;;;;;;;23.30;17.50;;;13.40;99.90;;;;;;5116953;28;20417;-61
2023/04/09 12:07:17;;;;;;;20.55;16.13;;;13.50;99.90;;;;;;5116817;28;20044;-61
2023/04/09 12:09:44;;;;;;;19.67;16.58;;;13.60;99.90;;;;;;5116290;28;20082;-61
2023/04/09 12:12:11;;;;;;;20.77;16.13;;;13.60;99.90;;;;;;5116187;28;20371;-61
2023/04/09 12:14:38;;;;;;;18.70;15.65;;;13.60;99.90;;;;;;5116861;28;20067;-62
2023/04/09 12:17:04;;;;;;;18.20;15.27;;;13.60;99.90;;;;;;5116241;28;20394;-61
2023/04/09 12:19:31;;;;;;;19.92;14.57;;;13.70;99.90;;;;;;5116139;28;20100;-61
2023/04/09 12:21:58;;;;;;;17.45;14.68;;;13.70;99.90;;;;;;5116537;28;20035;-61
2023/04/09 12:24:25;;;;;;;19.70;15.52;;;13.80;99.90;;;;;;5116518;28;20043;-61
2023/04/09 12:26:52;;;;;;;18.00;14.82;;;13.80;99.90;;;;;;5116239;28;20046;-61
2023/04/09 12:29:18;;;;;;;17.90;15.40;;;13.80;99.90;;;;;;5116403;28;20122;-61
2023/04/09 12:31:45;;;;;;;17.67;14.32;;;13.80;99.90;;;;;;5116045;28;20039;-62
2023/04/09 12:34:12;;;;;;;17.92;14.45;;;13.90;99.90;;;;;;5115984;28;20108;-61
2023/04/09 12:36:40;;;;;;;17.17;14.82;;;14.00;99.90;;;;;;5116263;28;20097;-61